createdAt,value
2019-04-04T00:01:40.369Z,25.00
2019-04-04T00:04:13.153Z,26.03
2019-04-04T00:06:45.931Z,27.00
2019-04-04T00:09:18.747Z,23.73
2019-04-04T00:11:51.514Z,28.70
2019-04-04T00:14:24.311Z,24.53
2019-04-04T00:16:57.273Z,24.30
2019-04-04T00:19:30.603Z,23.80
2019-04-04T00:22:05.077Z,26.33
2019-04-04T00:24:39.505Z,27.33
2019-04-04T00:27:13.688Z,27.93
2019-04-04T00:29:47.978Z,28.90
2019-04-04T00:32:21.777Z,29.60
2019-04-04T00:34:54.585Z,24.77
2019-04-04T00:37:27.296Z,30.30
2019-04-04T00:40:00.083Z,28.50
2019-04-04T00:42:33.004Z,30.17
2019-04-04T00:45:06.471Z,31.87
2019-04-04T00:47:39.453Z,27.47
2019-04-04T00:50:12.462Z,29.47
2019-04-04T00:52:45.407Z,28.53
2019-04-04T00:55:18.525Z,30.43
2019-04-04T00:57:51.363Z,30.60
2019-04-04T01:00:24.636Z,33.50
2019-04-04T01:03:00.616Z,32.37
2019-04-04T01:05:33.498Z,28.47
2019-04-04T01:08:07.008Z,35.60
2019-04-04T01:10:40.439Z,34.30
2019-04-04T01:13:13.378Z,37.00
2019-04-04T01:15:46.112Z,36.17
2019-04-04T01:18:18.973Z,30.57
2019-04-04T01:20:52.044Z,32.87
2019-04-04T01:23:27.188Z,34.57
2019-04-04T01:26:01.330Z,33.57
2019-04-04T01:28:37.102Z,34.53
2019-04-04T01:31:14.592Z,36.43
2019-04-04T01:33:46.139Z,33.83
2019-04-04T01:36:19.028Z,39.13
2019-04-04T01:38:51.943Z,34.33
2019-04-04T01:41:24.669Z,37.97
2019-04-04T01:44:04.759Z,35.37
2019-04-04T01:46:32.289Z,33.50
2019-04-04T01:49:05.211Z,36.23
2019-04-04T01:51:38.127Z,35.73
2019-04-04T01:54:10.819Z,34.63
2019-04-04T01:56:43.798Z,34.57
2019-04-04T01:59:16.535Z,32.87
2019-04-04T02:01:50.518Z,32.77
2019-04-04T02:04:24.792Z,31.63
2019-04-04T02:06:59.167Z,32.37
2019-04-04T02:09:34.624Z,35.00
2019-04-04T02:12:08.009Z,30.63
2019-04-04T02:14:43.138Z,27.83
2019-04-04T02:17:16.129Z,30.30
2019-04-04T02:19:48.888Z,28.57
2019-04-04T02:22:21.633Z,27.70
2019-04-04T02:24:54.578Z,28.73
2019-04-04T02:27:27.467Z,29.20
2019-04-04T02:30:00.217Z,28.03
2019-04-04T02:32:33.188Z,28.27
2019-04-04T02:35:10.126Z,26.37
2019-04-04T02:37:41.193Z,28.70
2019-04-04T02:40:14.484Z,23.27
2019-04-04T02:42:54.054Z,23.37
2019-04-04T02:45:25.238Z,24.47
2019-04-04T02:47:58.117Z,25.77
2019-04-04T02:50:34.473Z,25.40
2019-04-04T02:53:05.794Z,27.50
2019-04-04T02:55:38.758Z,24.63
2019-04-04T02:58:15.104Z,25.97
2019-04-04T03:00:46.602Z,25.83
2019-04-04T03:03:19.735Z,26.67
2019-04-04T03:05:52.631Z,28.53
2019-04-04T03:08:26.449Z,23.80
2019-04-04T03:10:59.599Z,25.77
2019-04-04T03:13:32.527Z,23.53
2019-04-04T03:16:05.415Z,26.67
2019-04-04T03:18:38.422Z,24.03
2019-04-04T03:21:11.293Z,26.47
2019-04-04T03:23:44.194Z,26.47
2019-04-04T03:26:20.068Z,26.67
2019-04-04T03:28:51.861Z,23.90
2019-04-04T03:31:24.870Z,24.30
2019-04-04T03:33:57.930Z,27.67
2019-04-04T03:36:33.836Z,26.50
2019-04-04T03:39:06.395Z,26.57
2019-04-04T03:41:39.323Z,27.33
2019-04-04T03:44:12.184Z,27.77
2019-04-04T03:46:45.445Z,27.90
2019-04-04T03:49:18.302Z,26.20
2019-04-04T03:51:51.259Z,26.63
2019-04-04T03:54:26.423Z,28.03
2019-04-04T03:56:59.255Z,26.33
2019-04-04T03:59:33.206Z,24.67
2019-04-04T04:02:06.136Z,30.17
2019-04-04T04:04:38.916Z,25.73
2019-04-04T04:07:15.171Z,27.43
2019-04-04T04:09:46.987Z,26.93
2019-04-04T04:12:19.935Z,28.57
2019-04-04T04:14:54.935Z,29.60
2019-04-04T04:17:27.940Z,28.93
2019-04-04T04:20:04.223Z,28.83
2019-04-04T04:22:35.683Z,25.13
2019-04-04T04:25:08.532Z,28.60
2019-04-04T04:27:41.536Z,25.53
2019-04-04T04:30:14.408Z,25.23
2019-04-04T04:32:47.438Z,29.10
2019-04-04T04:35:20.652Z,29.37
2019-04-04T04:37:53.918Z,29.77
2019-04-04T04:40:27.239Z,29.50
2019-04-04T04:43:01.033Z,28.23
2019-04-04T04:45:34.121Z,31.10
2019-04-04T04:48:07.162Z,32.37
2019-04-04T04:50:40.627Z,29.57
2019-04-04T04:53:14.105Z,28.87
2019-04-04T04:55:47.101Z,34.60
2019-04-04T04:58:20.117Z,32.17
2019-04-04T05:00:53.024Z,31.50
2019-04-04T05:03:25.941Z,34.00
2019-04-04T05:06:00.495Z,31.53
2019-04-04T05:08:33.599Z,30.63
2019-04-04T05:11:06.667Z,30.83
2019-04-04T05:13:39.577Z,28.60
2019-04-04T05:16:12.396Z,26.30
2019-04-04T05:18:47.486Z,27.87
2019-04-04T05:21:25.080Z,28.03
2019-04-04T05:23:55.295Z,30.67
2019-04-04T05:26:28.175Z,28.87
2019-04-04T05:29:01.372Z,28.47
2019-04-04T05:31:34.601Z,31.57
2019-04-04T05:34:07.811Z,30.80
2019-04-04T05:36:40.911Z,27.60
2019-04-04T05:39:14.047Z,28.17
2019-04-04T05:41:47.026Z,28.00
2019-04-04T05:44:20.176Z,26.23
2019-04-04T05:46:53.197Z,25.53
2019-04-04T05:49:26.094Z,27.67
2019-04-04T05:51:59.196Z,29.77
2019-04-04T05:54:32.068Z,33.73
2019-04-04T05:57:05.905Z,26.57
2019-04-04T05:59:38.911Z,31.77
2019-04-04T06:02:12.171Z,30.67
2019-04-04T06:04:45.186Z,32.00
2019-04-04T06:07:18.128Z,28.03
2019-04-04T06:09:52.948Z,24.63
2019-04-04T06:12:26.393Z,26.37
2019-04-04T06:15:00.596Z,23.77
2019-04-04T06:17:33.879Z,25.07
2019-04-04T06:20:07.701Z,25.17
2019-04-04T06:22:40.466Z,25.77
2019-04-04T06:25:13.729Z,22.13
2019-04-04T06:27:46.689Z,22.63
2019-04-04T06:30:20.241Z,20.97
2019-04-04T06:32:53.898Z,22.47
2019-04-04T06:35:26.827Z,22.20
2019-04-04T06:37:59.763Z,24.43
2019-04-04T06:40:32.778Z,24.63
2019-04-04T06:43:10.292Z,31.97
2019-04-04T06:45:41.641Z,25.83
2019-04-04T06:48:14.827Z,22.33
2019-04-04T06:50:47.657Z,23.13
2019-04-04T06:53:22.221Z,20.17
2019-04-04T06:55:55.362Z,20.67
2019-04-04T06:58:28.399Z,23.67
2019-04-04T07:01:01.361Z,21.83
2019-04-04T07:03:35.224Z,23.47
2019-04-04T07:06:10.242Z,23.10
2019-04-04T07:08:42.717Z,22.93
2019-04-04T07:11:21.589Z,22.83
2019-04-04T07:13:51.010Z,20.90
2019-04-04T07:16:24.234Z,23.20
2019-04-04T07:18:57.377Z,22.53
2019-04-04T07:21:30.373Z,19.40
2019-04-04T07:24:03.464Z,21.30
2019-04-04T07:26:36.537Z,23.07
2019-04-04T07:29:09.790Z,19.67
2019-04-04T07:31:42.643Z,22.47
2019-04-04T07:34:15.593Z,21.50
2019-04-04T07:36:49.135Z,20.13
2019-04-04T07:39:23.412Z,22.63
2019-04-04T07:41:56.345Z,22.27
2019-04-04T07:44:29.273Z,20.77
2019-04-04T07:47:02.345Z,19.53
2019-04-04T07:49:35.263Z,23.43
2019-04-04T07:52:08.495Z,23.60
2019-04-04T07:54:41.378Z,26.30
2019-04-04T07:57:14.487Z,23.40
2019-04-04T07:59:47.243Z,20.83
2019-04-04T08:02:20.095Z,27.60
2019-04-04T08:04:52.978Z,23.50
2019-04-04T08:07:25.943Z,22.73
2019-04-04T08:09:59.006Z,24.93
2019-04-04T08:12:31.855Z,28.27
2019-04-04T08:15:06.629Z,27.03
2019-04-04T08:17:39.468Z,25.77
2019-04-04T08:20:12.864Z,26.40
2019-04-04T08:22:45.805Z,26.00
2019-04-04T08:25:18.575Z,29.50
2019-04-04T08:27:51.754Z,27.73
2019-04-04T08:30:24.811Z,22.83
2019-04-04T08:32:57.959Z,24.03
2019-04-04T08:35:31.178Z,27.47
2019-04-04T08:38:04.381Z,27.63
2019-04-04T08:40:37.349Z,21.50
2019-04-04T08:43:10.296Z,23.03
2019-04-04T08:45:43.295Z,22.57
2019-04-04T08:48:17.479Z,25.03
2019-04-04T08:50:50.364Z,24.53
2019-04-04T08:53:23.265Z,23.23
2019-04-04T08:55:56.077Z,25.23
2019-04-04T08:58:29.153Z,30.87
2019-04-04T09:01:02.115Z,26.33
2019-04-04T09:03:35.274Z,26.23
2019-04-04T09:06:08.264Z,25.63
2019-04-04T09:08:41.361Z,23.20
2019-04-04T09:11:14.350Z,24.17
2019-04-04T09:13:47.420Z,17.40
2019-04-04T09:16:20.444Z,25.67
2019-04-04T09:18:53.404Z,25.87
2019-04-04T09:21:26.364Z,21.63
2019-04-04T09:24:00.845Z,20.90
2019-04-04T09:26:34.076Z,18.33
2019-04-04T09:29:07.041Z,17.70
2019-04-04T09:31:40.086Z,22.10
2019-04-04T09:34:32.444Z,19.37
2019-04-04T09:37:08.681Z,20.73
2019-04-04T09:39:40.116Z,17.30
2019-04-04T09:42:13.066Z,15.60
2019-04-04T09:44:46.098Z,15.83
2019-04-04T09:47:19.492Z,16.40
2019-04-04T09:49:52.370Z,16.27
2019-04-04T09:52:25.284Z,21.23
2019-04-04T09:54:58.471Z,17.50
2019-04-04T09:57:31.405Z,21.23
2019-04-04T10:00:08.500Z,19.73
2019-04-04T10:02:41.708Z,16.87
2019-04-04T10:05:15.156Z,19.77
2019-04-04T10:07:48.130Z,20.13
2019-04-04T10:10:20.946Z,21.50
2019-04-04T10:12:54.042Z,22.83
2019-04-04T10:15:27.322Z,19.53
2019-04-04T10:18:00.252Z,21.43
2019-04-04T10:20:33.134Z,19.37
2019-04-04T10:23:06.225Z,20.47
2019-04-04T10:25:39.507Z,20.90
2019-04-04T10:28:12.465Z,20.97
2019-04-04T10:30:45.506Z,19.80
2019-04-04T10:33:18.479Z,22.93
2019-04-04T10:35:51.250Z,25.63
2019-04-04T10:38:24.292Z,19.10
2019-04-04T10:40:57.075Z,20.67
2019-04-04T10:43:30.156Z,22.50
2019-04-04T10:46:02.981Z,20.40
2019-04-04T10:48:36.842Z,18.80
2019-04-04T10:51:10.016Z,17.37
2019-04-04T10:53:43.110Z,42.67
2019-04-04T10:56:17.245Z,25.00
2019-04-04T10:58:50.266Z,19.33
2019-04-04T11:01:23.023Z,18.47
2019-04-04T11:03:56.988Z,16.30
2019-04-04T11:06:29.965Z,16.77
2019-04-04T11:09:04.530Z,17.17
2019-04-04T11:11:38.588Z,17.10
2019-04-04T11:14:11.388Z,14.03
2019-04-04T11:16:45.061Z,16.67
2019-04-04T11:19:30.356Z,16.77
2019-04-04T11:21:52.677Z,16.03
2019-04-04T11:24:25.702Z,14.87
2019-04-04T11:26:58.696Z,15.07
2019-04-04T11:29:31.523Z,18.73
2019-04-04T11:32:04.416Z,32.77
2019-04-04T11:34:37.216Z,15.23
2019-04-04T11:37:10.016Z,15.90
2019-04-04T11:39:54.089Z,19.80
2019-04-04T11:42:17.772Z,17.17
2019-04-04T11:44:51.972Z,15.27
2019-04-04T11:47:24.898Z,12.80
2019-04-04T11:49:57.853Z,15.17
2019-04-04T11:52:30.932Z,15.87
2019-04-04T11:55:04.266Z,15.40
2019-04-04T11:57:37.087Z,16.13
2019-04-04T12:00:12.212Z,14.57
2019-04-04T12:02:45.173Z,15.57
2019-04-04T12:05:18.155Z,15.00
2019-04-04T12:07:51.272Z,16.30
2019-04-04T12:10:24.238Z,16.70
2019-04-04T12:12:58.675Z,13.23
2019-04-04T12:15:31.782Z,13.60
2019-04-04T12:18:04.573Z,15.47
2019-04-04T12:20:37.727Z,14.10
2019-04-04T12:23:10.624Z,10.77
2019-04-04T12:25:43.424Z,13.63
2019-04-04T12:28:16.178Z,10.53
2019-04-04T12:30:49.107Z,11.67
2019-04-04T12:33:22.114Z,10.40
2019-04-04T12:35:55.016Z,12.00
2019-04-04T12:38:27.783Z,12.47
2019-04-04T12:41:00.642Z,10.07
2019-04-04T12:43:33.497Z,10.73
2019-04-04T12:46:06.251Z,9.47
2019-04-04T12:48:39.061Z,8.17
2019-04-04T12:51:11.868Z,7.57
2019-04-04T12:53:44.844Z,8.13
2019-04-04T12:56:17.733Z,8.60
2019-04-04T12:58:51.052Z,7.43
2019-04-04T13:01:24.197Z,7.80
2019-04-04T13:03:57.062Z,9.07
2019-04-04T13:06:29.845Z,10.03
2019-04-04T13:09:04.667Z,9.93
2019-04-04T13:11:38.447Z,9.17
2019-04-04T13:14:11.473Z,8.13
2019-04-04T13:16:44.329Z,9.60
2019-04-04T13:19:17.386Z,11.47
2019-04-04T13:21:50.342Z,8.73
2019-04-04T13:24:23.225Z,9.90
2019-04-04T13:26:56.005Z,8.90
2019-04-04T13:29:28.880Z,11.00
2019-04-04T13:32:01.848Z,10.53
2019-04-04T13:34:34.922Z,8.50
2019-04-04T13:37:07.864Z,11.50
2019-04-04T13:39:41.814Z,11.27
2019-04-04T13:42:14.595Z,11.03
2019-04-04T13:44:47.635Z,10.50
2019-04-04T13:47:20.528Z,9.67
2019-04-04T13:49:53.339Z,8.70
2019-04-04T13:52:27.064Z,9.13
2019-04-04T13:55:00.174Z,9.10
2019-04-04T13:57:33.034Z,11.67
2019-04-04T14:00:07.444Z,9.90
2019-04-04T14:02:40.825Z,10.10
2019-04-04T14:05:14.423Z,11.90
2019-04-04T14:07:47.566Z,12.30
2019-04-04T14:10:20.690Z,14.90
2019-04-04T14:12:53.509Z,10.53
2019-04-04T14:15:26.433Z,13.90
2019-04-04T14:17:59.415Z,14.10
2019-04-04T14:20:32.344Z,12.03
2019-04-04T14:23:05.293Z,12.13
2019-04-04T14:25:38.518Z,13.83
2019-04-04T14:28:11.750Z,13.27
2019-04-04T14:30:44.783Z,12.60
2019-04-04T14:33:18.115Z,13.00
2019-04-04T14:35:51.099Z,11.47
2019-04-04T14:38:23.883Z,11.83
2019-04-04T14:40:57.075Z,17.33
2019-04-04T14:43:30.473Z,14.13
2019-04-04T14:46:03.679Z,12.73
2019-04-04T14:48:37.376Z,12.13
2019-04-04T14:51:10.285Z,13.33
2019-04-04T14:53:43.861Z,11.87
2019-04-04T14:56:16.706Z,13.57
2019-04-04T14:58:49.763Z,13.30
2019-04-04T15:01:22.752Z,12.90
2019-04-04T15:03:55.839Z,13.00
2019-04-04T15:06:28.912Z,16.57
2019-04-04T15:09:01.911Z,13.17
2019-04-04T15:11:36.616Z,12.90
2019-04-04T15:14:09.664Z,12.67
2019-04-04T15:16:42.494Z,14.20
2019-04-04T15:19:15.493Z,11.60
2019-04-04T15:21:48.541Z,12.70
2019-04-04T15:24:21.526Z,11.90
2019-04-04T15:26:54.443Z,10.87
2019-04-04T15:29:27.478Z,15.77
2019-04-04T15:32:00.241Z,14.00
2019-04-04T15:34:33.001Z,14.60
2019-04-04T15:37:06.084Z,11.70
2019-04-04T15:39:39.074Z,13.50
2019-04-04T15:42:11.991Z,10.27
2019-04-04T15:44:44.884Z,13.63
2019-04-04T15:47:17.795Z,14.23
2019-04-04T15:49:50.851Z,16.77
2019-04-04T15:52:23.829Z,12.90
2019-04-04T15:54:56.720Z,12.50
2019-04-04T15:57:29.672Z,20.13
2019-04-04T16:00:02.585Z,13.57
2019-04-04T16:02:37.372Z,16.97
2019-04-04T16:05:10.380Z,13.63
2019-04-04T16:07:43.385Z,10.80
2019-04-04T16:10:16.365Z,10.93
2019-04-04T16:12:49.192Z,10.50
2019-04-04T16:15:25.283Z,11.78
2019-04-04T16:18:04.830Z,9.47
2019-04-04T16:20:38.480Z,12.67
2019-04-04T16:23:11.538Z,11.07
2019-04-04T16:25:44.510Z,10.23
2019-04-04T16:28:17.456Z,12.43
2019-04-04T16:30:50.446Z,14.37
2019-04-04T16:33:26.321Z,13.27
2019-04-04T16:35:58.091Z,11.87
2019-04-04T16:38:30.972Z,12.43
2019-04-04T16:41:05.104Z,12.03
2019-04-04T16:43:39.045Z,13.70
2019-04-04T16:46:13.032Z,11.17
2019-04-04T16:48:46.076Z,10.53
2019-04-04T16:51:38.513Z,12.57
2019-04-04T16:54:11.524Z,10.40
2019-04-04T16:56:44.427Z,11.17
2019-04-04T16:59:17.357Z,10.53
2019-04-04T17:01:50.382Z,10.50
2019-04-04T17:04:23.572Z,13.50
2019-04-04T17:06:56.567Z,11.97
2019-04-04T17:09:29.477Z,9.77
2019-04-04T17:12:14.194Z,11.03
2019-04-04T17:14:37.324Z,10.93
2019-04-04T17:17:10.268Z,11.77
2019-04-04T17:19:43.116Z,12.50
2019-04-04T17:22:16.226Z,14.00
2019-04-04T17:24:49.311Z,17.13
2019-04-04T17:27:22.367Z,16.13
2019-04-04T17:29:55.794Z,15.20
2019-04-04T17:32:29.385Z,14.27
2019-04-04T17:35:02.831Z,16.17
2019-04-04T17:37:35.927Z,17.70
2019-04-04T17:40:09.474Z,19.10
2019-04-04T17:42:42.990Z,19.87
2019-04-04T17:45:17.606Z,22.40
2019-04-04T17:47:50.385Z,19.50
2019-04-04T17:50:24.071Z,22.80
2019-04-04T17:52:57.123Z,20.77
2019-04-04T17:55:30.413Z,22.03
2019-04-04T17:58:03.818Z,19.70
2019-04-04T18:00:36.645Z,23.37
2019-04-04T18:03:09.852Z,19.50
2019-04-04T18:05:42.982Z,19.07
2019-04-04T18:08:16.008Z,20.00
2019-04-04T18:10:48.951Z,18.80
2019-04-04T18:13:22.078Z,19.70
2019-04-04T18:15:55.051Z,21.47
2019-04-04T18:18:28.087Z,21.30
2019-04-04T18:21:01.332Z,24.13
2019-04-04T18:23:34.426Z,20.80
2019-04-04T18:26:07.461Z,22.07
2019-04-04T18:28:40.498Z,22.40
2019-04-04T18:31:13.436Z,22.40
2019-04-04T18:33:46.513Z,22.23
2019-04-04T18:36:19.638Z,23.93
2019-04-04T18:38:52.807Z,24.63
2019-04-04T18:41:25.661Z,28.17
2019-04-04T18:43:58.480Z,26.87
2019-04-04T18:46:31.601Z,24.87
2019-04-04T18:49:04.707Z,24.33
2019-04-04T18:51:37.901Z,22.93
2019-04-04T18:54:10.873Z,23.97
2019-04-04T18:56:43.727Z,27.40
2019-04-04T18:59:16.523Z,30.87
2019-04-04T19:01:49.249Z,27.37
2019-04-04T19:04:22.067Z,31.60
2019-04-04T19:06:54.948Z,31.23
2019-04-04T19:09:28.822Z,27.13
2019-04-04T19:12:02.760Z,31.87
2019-04-04T19:14:35.679Z,29.70
2019-04-04T19:17:08.567Z,32.27
2019-04-04T19:19:41.473Z,30.40
2019-04-04T19:22:14.455Z,37.03
2019-04-04T19:24:47.427Z,35.17
2019-04-04T19:27:20.238Z,35.30
2019-04-04T19:29:56.139Z,33.83
2019-04-04T19:32:29.124Z,29.30
2019-04-04T19:35:02.091Z,38.53
2019-04-04T19:37:35.098Z,38.07
2019-04-04T19:40:08.412Z,33.90
2019-04-04T19:42:41.339Z,29.37
2019-04-04T19:45:14.695Z,27.70
2019-04-04T19:47:47.552Z,24.90
2019-04-04T19:50:20.563Z,24.07
2019-04-04T19:52:53.398Z,24.43
2019-04-04T19:55:26.285Z,24.57
2019-04-04T19:58:51.113Z,23.30
2019-04-04T20:01:25.702Z,23.37
2019-04-04T20:03:59.055Z,27.87
2019-04-04T20:06:32.953Z,29.63
2019-04-04T20:09:06.820Z,28.90
2019-04-04T20:11:40.508Z,33.63
2019-04-04T20:14:13.312Z,32.73
2019-04-04T20:16:46.187Z,28.23
2019-04-04T20:19:19.345Z,25.17
2019-04-04T20:21:52.189Z,28.10
2019-04-04T20:24:25.014Z,25.13
2019-04-04T20:26:57.811Z,30.37
2019-04-04T20:29:30.630Z,23.93
2019-04-04T20:32:03.474Z,23.77
2019-04-04T20:34:36.625Z,24.73
2019-04-04T20:37:09.376Z,23.60
2019-04-04T20:39:43.125Z,25.03
2019-04-04T20:42:18.108Z,23.77
2019-04-04T20:44:51.154Z,27.60
2019-04-04T20:47:23.995Z,24.03
2019-04-04T20:49:56.809Z,24.97
2019-04-04T20:52:29.780Z,27.13
2019-04-04T20:55:02.837Z,27.67
2019-04-04T20:57:35.807Z,28.07
2019-04-04T21:00:09.119Z,25.23
2019-04-04T21:02:42.177Z,24.10
2019-04-04T21:05:15.105Z,23.70
2019-04-04T21:07:48.134Z,22.30
2019-04-04T21:10:20.838Z,22.80
2019-04-04T21:12:54.061Z,21.67
2019-04-04T21:15:26.889Z,20.87
2019-04-04T21:17:59.970Z,20.27
2019-04-04T21:20:32.850Z,22.33
2019-04-04T21:23:05.907Z,21.33
2019-04-04T21:25:38.745Z,23.90
2019-04-04T21:28:11.512Z,21.90
2019-04-04T21:30:45.030Z,22.17
2019-04-04T21:33:18.012Z,23.67
2019-04-04T21:35:50.801Z,22.73
2019-04-04T21:38:23.679Z,22.83
2019-04-04T21:40:57.599Z,25.57
2019-04-04T21:43:30.810Z,28.43
2019-04-04T21:46:03.876Z,25.37
2019-04-04T21:48:36.833Z,24.40
2019-04-04T21:51:09.837Z,20.87
2019-04-04T21:53:42.610Z,27.93
2019-04-04T21:56:15.813Z,20.20
2019-04-04T21:58:48.768Z,22.53
2019-04-04T22:01:21.815Z,22.17
2019-04-04T22:03:56.605Z,21.27
2019-04-04T22:06:29.545Z,24.37
2019-04-04T22:09:04.693Z,23.70
2019-04-04T22:11:39.106Z,25.43
2019-04-04T22:14:21.743Z,22.33
2019-04-04T22:16:46.703Z,26.60
2019-04-04T22:19:19.792Z,25.47
2019-04-04T22:21:52.809Z,26.07
2019-04-04T22:24:25.730Z,26.50
2019-04-04T22:26:58.768Z,24.77
2019-04-04T22:29:33.442Z,24.50
2019-04-04T22:32:06.401Z,24.60
2019-04-04T22:34:39.375Z,29.13
2019-04-04T22:37:12.334Z,23.27
2019-04-04T22:39:45.238Z,24.70
2019-04-04T22:42:18.075Z,26.37
2019-04-04T22:44:51.090Z,26.03
2019-04-04T22:47:24.011Z,25.33
2019-04-04T22:49:56.764Z,29.57
2019-04-04T22:52:29.995Z,31.93
2019-04-04T22:55:03.016Z,29.60
2019-04-04T22:57:36.087Z,28.73
2019-04-04T23:00:09.570Z,27.83
2019-04-04T23:02:44.250Z,29.80
2019-04-04T23:05:17.190Z,27.20
2019-04-04T23:07:50.221Z,27.70
2019-04-04T23:10:22.972Z,26.33
2019-04-04T23:12:55.950Z,25.93
2019-04-04T23:15:28.700Z,32.77
2019-04-04T23:18:01.737Z,29.53
2019-04-04T23:20:34.455Z,28.90
2019-04-04T23:23:07.225Z,32.30
2019-04-04T23:25:40.178Z,34.87
2019-04-04T23:28:13.040Z,31.57
2019-04-04T23:30:46.006Z,26.10
2019-04-04T23:33:18.825Z,27.77
2019-04-04T23:35:51.826Z,31.37
2019-04-04T23:38:24.787Z,39.13
2019-04-04T23:40:58.567Z,35.87
2019-04-04T23:43:31.418Z,32.10
2019-04-04T23:46:04.246Z,32.53
2019-04-04T23:48:37.376Z,32.23
2019-04-04T23:51:10.127Z,29.67
2019-04-04T23:53:43.207Z,29.77
2019-04-04T23:56:16.241Z,30.17
2019-04-04T23:58:49.091Z,25.17
